Fuengirola, Espanja

1. syyskuuta 2015 klo 20:08 (CEST) (GMT +0200)
Las Lagunas | | Change Station
CLOSE
Current Station
Omat sääasemat
Location: Fuengirola, ANDALUCíA
Korkeus: 125 ft
Lähimmät sääasemat

Kork 125 ft 36.54 °N, 4.64 °W | Updated 8 minutes ago

Clear
Selkeää
82.0 °F
Tuntuu kuin 83 °F
N
8.0
Tuuli Suunnaltaan vaihteleva Tuuli ilmansuunnasta Lännen ja luoteen välinen
Gusts 14.0 mph

Tänään
Korkea -- | Matala -- °F
--% Sateen mahd.
Eilen
Korkea -- | Matala -- °F
Precip. -- tuumaa
7:49 AM 8:47 PM
Vähenevä kupera kuu, 87% visible
Ilmanpaine 29.89 tuumaa
Näkyvyys -9999.0 mailia
Pilviä
Lämpötilaindeksi 83 °F
Kastepiste 63 °F
Ilmankosteus 52%
Sademäärä 0.00 tuumaa
Lumensyvyys Ei saatavilla
UV Ei saatavilla
Pollen Ei saatavilla
Ilmanlaatu Ei saatavilla
Flu Activity Ei saatavilla
METAR LEMG 011800Z 17008KT 140V210 CAVOK 33/16 Q1012 NOSIG
Ilmanpaine 29.89 tuumaa
Näkyvyys -9999.0 mailia
Pilviä
Lämpötilaindeksi 83 °F
Kastepiste 63 °F
Ilmankosteus 52%
Sademäärä 0.00 tuumaa
Lumensyvyys Ei saatavilla
UV Ei saatavilla
Pollen Ei saatavilla
Ilmanlaatu Ei saatavilla
Flu Activity Ei saatavilla
METAR LEMG 011800Z 17008KT 140V210 CAVOK 33/16 Q1012 NOSIG

10-Day Weather Forecast

×

Almanac

Tähtitiede

Sep. 01, 2015 Nousuaika Laskuaika
Valoisa aika
Porvarillinen hämärä
Nauttinen hämärä
Astronominen hämärä
Kuu
Näkyvän valon pituus
Päivän pituus
Tomorrow will be .
, % of the Moon is Illuminated

Tämän päivän ennätykset

Country Highs Country Lows

Community

WunderPhotos

Upload Photos

1,851,588 photos uploaded!

WunderBlogs® & News

Nearby

Ilmanlaatu

  Ilmanlaatu AQ Index Pollutant
Not available.

Lumensyvyys

Station Depth Korkeus

Maanjäristysaktiivisuus

Paikkakunta Distance Mag. Time & Date
Minimum magnitude displayed is 2.5.

Coastal Water Temperatures

Paikka Lämpötila

Stations

Lähimmät sääasemat

Aseman sijainti Lämpötila Tuulen hyytävyys Kastepiste Ilmankosteus Tuuli Precip. Kork Päivitetty Tyyppi